sensor_id;sensor_type;location;lat;lon;timestamp;temperature;humidity
75471;HTU21D;64051;46.320;48.028;2023-05-07T00:01:59;12.64;71.62
75471;HTU21D;64051;46.320;48.028;2023-05-07T00:04:25;12.63;71.64
75471;HTU21D;64051;46.320;48.028;2023-05-07T00:06:51;12.61;71.65
75471;HTU21D;64051;46.320;48.028;2023-05-07T00:09:17;12.58;71.66
75471;HTU21D;64051;46.320;48.028;2023-05-07T00:11:43;12.56;71.67
75471;HTU21D;64051;46.320;48.028;2023-05-07T00:14:09;12.53;71.70
75471;HTU21D;64051;46.320;48.028;2023-05-07T00:16:35;12.50;71.74
75471;HTU21D;64051;46.320;48.028;2023-05-07T00:19:00;12.49;71.79
75471;HTU21D;64051;46.320;48.028;2023-05-07T00:21:26;12.47;71.85
75471;HTU21D;64051;46.320;48.028;2023-05-07T00:23:53;12.48;71.90
75471;HTU21D;64051;46.320;48.028;2023-05-07T00:26:19;12.46;71.87
75471;HTU21D;64051;46.320;48.028;2023-05-07T00:28:49;12.46;71.88
75471;HTU21D;64051;46.320;48.028;2023-05-07T00:31:15;12.45;71.92
75471;HTU21D;64051;46.320;48.028;2023-05-07T00:33:41;12.44;71.95
75471;HTU21D;64051;46.320;48.028;2023-05-07T00:36:07;12.41;71.98
75471;HTU21D;64051;46.320;48.028;2023-05-07T00:38:33;12.42;71.99
75471;HTU21D;64051;46.320;48.028;2023-05-07T00:40:58;12.38;72.01
75471;HTU21D;64051;46.320;48.028;2023-05-07T00:43:24;12.37;72.04
75471;HTU21D;64051;46.320;48.028;2023-05-07T00:45:51;12.37;72.06
75471;HTU21D;64051;46.320;48.028;2023-05-07T00:48:17;12.37;72.10
75471;HTU21D;64051;46.320;48.028;2023-05-07T00:50:44;12.37;72.14
75471;HTU21D;64051;46.320;48.028;2023-05-07T00:53:10;12.37;72.16
75471;HTU21D;64051;46.320;48.028;2023-05-07T00:55:36;12.37;72.20
75471;HTU21D;64051;46.320;48.028;2023-05-07T00:58:02;12.37;72.24
75471;HTU21D;64051;46.320;48.028;2023-05-07T01:00:28;12.36;72.27
75471;HTU21D;64051;46.320;48.028;2023-05-07T01:02:55;12.40;72.30
75471;HTU21D;64051;46.320;48.028;2023-05-07T01:05:23;12.41;72.37
75471;HTU21D;64051;46.320;48.028;2023-05-07T01:07:50;12.41;72.42
75471;HTU21D;64051;46.320;48.028;2023-05-07T01:10:17;12.43;72.46
75471;HTU21D;64051;46.320;48.028;2023-05-07T01:12:44;12.44;72.48
75471;HTU21D;64051;46.320;48.028;2023-05-07T01:15:11;12.45;72.45
75471;HTU21D;64051;46.320;48.028;2023-05-07T01:17:41;12.47;72.48
75471;HTU21D;64051;46.320;48.028;2023-05-07T01:20:14;12.47;72.48
75471;HTU21D;64051;46.320;48.028;2023-05-07T01:22:44;12.47;72.54
75471;HTU21D;64051;46.320;48.028;2023-05-07T01:25:11;12.47;72.58
75471;HTU21D;64051;46.320;48.028;2023-05-07T01:27:43;12.48;72.62
75471;HTU21D;64051;46.320;48.028;2023-05-07T01:30:10;12.49;72.66
75471;HTU21D;64051;46.320;48.028;2023-05-07T01:32:42;12.49;72.72
75471;HTU21D;64051;46.320;48.028;2023-05-07T01:35:11;12.49;72.69
75471;HTU21D;64051;46.320;48.028;2023-05-07T01:37:39;12.46;72.74
75471;HTU21D;64051;46.320;48.028;2023-05-07T01:40:06;12.47;72.81
75471;HTU21D;64051;46.320;48.028;2023-05-07T01:42:32;12.46;72.86
75471;HTU21D;64051;46.320;48.028;2023-05-07T01:44:59;12.46;72.90
75471;HTU21D;64051;46.320;48.028;2023-05-07T01:47:26;12.47;72.93
75471;HTU21D;64051;46.320;48.028;2023-05-07T01:49:52;12.46;72.99
75471;HTU21D;64051;46.320;48.028;2023-05-07T01:52:18;12.45;73.05
75471;HTU21D;64051;46.320;48.028;2023-05-07T01:54:44;12.45;73.12
75471;HTU21D;64051;46.320;48.028;2023-05-07T01:57:11;12.46;73.19
75471;HTU21D;64051;46.320;48.028;2023-05-07T01:59:37;12.48;73.26
75471;HTU21D;64051;46.320;48.028;2023-05-07T02:02:03;12.51;73.31
75471;HTU21D;64051;46.320;48.028;2023-05-07T02:04:31;12.56;73.35
75471;HTU21D;64051;46.320;48.028;2023-05-07T02:06:57;12.61;73.39
75471;HTU21D;64051;46.320;48.028;2023-05-07T02:09:23;12.66;73.45
75471;HTU21D;64051;46.320;48.028;2023-05-07T02:11:50;12.74;73.51
75471;HTU21D;64051;46.320;48.028;2023-05-07T02:14:18;12.84;73.53
75471;HTU21D;64051;46.320;48.028;2023-05-07T02:16:45;12.92;73.55
75471;HTU21D;64051;46.320;48.028;2023-05-07T02:19:13;13.02;73.54
75471;HTU21D;64051;46.320;48.028;2023-05-07T02:21:39;13.12;73.53
75471;HTU21D;64051;46.320;48.028;2023-05-07T02:24:05;13.25;73.55
75471;HTU21D;64051;46.320;48.028;2023-05-07T02:26:31;13.38;73.49
75471;HTU21D;64051;46.320;48.028;2023-05-07T02:28:57;13.53;73.41
75471;HTU21D;64051;46.320;48.028;2023-05-07T02:31:23;13.66;73.31
75471;HTU21D;64051;46.320;48.028;2023-05-07T02:33:49;13.79;73.20
75471;HTU21D;64051;46.320;48.028;2023-05-07T02:36:15;13.90;73.10
75471;HTU21D;64051;46.320;48.028;2023-05-07T02:38:51;13.99;73.03
75471;HTU21D;64051;46.320;48.028;2023-05-07T02:41:17;14.10;72.96
75471;HTU21D;64051;46.320;48.028;2023-05-07T02:43:43;14.20;72.93
75471;HTU21D;64051;46.320;48.028;2023-05-07T02:46:10;14.33;72.95
75471;HTU21D;64051;46.320;48.028;2023-05-07T02:48:40;14.41;72.98
75471;HTU21D;64051;46.320;48.028;2023-05-07T02:51:06;14.52;73.01
75471;HTU21D;64051;46.320;48.028;2023-05-07T02:53:34;14.64;73.11
75471;HTU21D;64051;46.320;48.028;2023-05-07T02:56:01;14.81;73.19
75471;HTU21D;64051;46.320;48.028;2023-05-07T02:58:27;14.97;73.18
75471;HTU21D;64051;46.320;48.028;2023-05-07T03:00:54;15.14;73.12
75471;HTU21D;64051;46.320;48.028;2023-05-07T03:03:58;15.36;73.28
75471;HTU21D;64051;46.320;48.028;2023-05-07T03:06:24;15.53;72.82
75471;HTU21D;64051;46.320;48.028;2023-05-07T03:08:50;15.74;73.02
75471;HTU21D;64051;46.320;48.028;2023-05-07T03:11:16;16.00;73.14
75471;HTU21D;64051;46.320;48.028;2023-05-07T03:13:42;16.28;73.16
75471;HTU21D;64051;46.320;48.028;2023-05-07T03:16:08;16.55;73.15
75471;HTU21D;64051;46.320;48.028;2023-05-07T03:18:33;16.81;73.09
75471;HTU21D;64051;46.320;48.028;2023-05-07T03:20:59;17.05;72.80
75471;HTU21D;64051;46.320;48.028;2023-05-07T03:23:25;17.22;72.37
75471;HTU21D;64051;46.320;48.028;2023-05-07T03:25:51;17.36;71.96
75471;HTU21D;64051;46.320;48.028;2023-05-07T03:28:17;17.46;71.66
75471;HTU21D;64051;46.320;48.028;2023-05-07T03:30:49;17.52;71.43
75471;HTU21D;64051;46.320;48.028;2023-05-07T03:33:15;17.59;71.37
75471;HTU21D;64051;46.320;48.028;2023-05-07T03:35:41;17.63;71.38
75471;HTU21D;64051;46.320;48.028;2023-05-07T03:38:07;17.67;71.31
75471;HTU21D;64051;46.320;48.028;2023-05-07T03:40:35;17.74;71.29
75471;HTU21D;64051;46.320;48.028;2023-05-07T03:43:02;17.80;71.36
75471;HTU21D;64051;46.320;48.028;2023-05-07T03:45:31;17.87;71.35
75471;HTU21D;64051;46.320;48.028;2023-05-07T03:48:10;17.94;71.22
75471;HTU21D;64051;46.320;48.028;2023-05-07T03:50:37;17.98;71.06
75471;HTU21D;64051;46.320;48.028;2023-05-07T03:53:03;18.04;70.93
75471;HTU21D;64051;46.320;48.028;2023-05-07T03:55:31;18.06;70.81
75471;HTU21D;64051;46.320;48.028;2023-05-07T03:57:59;18.09;70.75
75471;HTU21D;64051;46.320;48.028;2023-05-07T04:00:27;18.14;70.71
75471;HTU21D;64051;46.320;48.028;2023-05-07T04:02:59;18.19;70.60
75471;HTU21D;64051;46.320;48.028;2023-05-07T04:05:28;18.24;70.51
75471;HTU21D;64051;46.320;48.028;2023-05-07T04:07:59;18.28;70.48
75471;HTU21D;64051;46.320;48.028;2023-05-07T04:10:32;18.33;70.42
75471;HTU21D;64051;46.320;48.028;2023-05-07T04:13:02;18.38;70.38
75471;HTU21D;64051;46.320;48.028;2023-05-07T04:15:28;18.42;70.29
75471;HTU21D;64051;46.320;48.028;2023-05-07T04:17:58;18.48;70.29
75471;HTU21D;64051;46.320;48.028;2023-05-07T04:20:25;18.51;70.23
75471;HTU21D;64051;46.320;48.028;2023-05-07T04:22:57;18.58;70.19
75471;HTU21D;64051;46.320;48.028;2023-05-07T04:25:25;18.65;70.13
75471;HTU21D;64051;46.320;48.028;2023-05-07T04:27:56;18.70;70.00
75471;HTU21D;64051;46.320;48.028;2023-05-07T04:30:25;18.76;69.83
75471;HTU21D;64051;46.320;48.028;2023-05-07T04:32:52;18.81;69.55
75471;HTU21D;64051;46.320;48.028;2023-05-07T04:35:19;18.84;69.34
75471;HTU21D;64051;46.320;48.028;2023-05-07T04:37:45;18.88;69.23
75471;HTU21D;64051;46.320;48.028;2023-05-07T04:40:13;18.94;69.00
75471;HTU21D;64051;46.320;48.028;2023-05-07T04:42:42;18.95;68.87
75471;HTU21D;64051;46.320;48.028;2023-05-07T04:45:09;18.94;68.60
75471;HTU21D;64051;46.320;48.028;2023-05-07T04:47:38;18.87;68.50
75471;HTU21D;64051;46.320;48.028;2023-05-07T04:50:06;18.84;68.46
75471;HTU21D;64051;46.320;48.028;2023-05-07T04:52:33;18.80;68.49
75471;HTU21D;64051;46.320;48.028;2023-05-07T04:55:06;18.85;68.48
75471;HTU21D;64051;46.320;48.028;2023-05-07T04:57:37;18.88;68.29
75471;HTU21D;64051;46.320;48.028;2023-05-07T05:00:08;18.88;68.10
75471;HTU21D;64051;46.320;48.028;2023-05-07T05:02:36;18.91;67.97
75471;HTU21D;64051;46.320;48.028;2023-05-07T05:05:03;18.93;67.97
75471;HTU21D;64051;46.320;48.028;2023-05-07T05:07:29;18.98;67.81
75471;HTU21D;64051;46.320;48.028;2023-05-07T05:09:58;19.03;67.67
75471;HTU21D;64051;46.320;48.028;2023-05-07T05:12:25;19.10;67.46
75471;HTU21D;64051;46.320;48.028;2023-05-07T05:14:51;19.15;67.33
75471;HTU21D;64051;46.320;48.028;2023-05-07T05:17:17;19.23;67.22
75471;HTU21D;64051;46.320;48.028;2023-05-07T05:19:43;19.35;67.18
75471;HTU21D;64051;46.320;48.028;2023-05-07T05:22:09;19.46;67.10
75471;HTU21D;64051;46.320;48.028;2023-05-07T05:24:38;19.62;66.87
75471;HTU21D;64051;46.320;48.028;2023-05-07T05:27:05;19.77;66.55
75471;HTU21D;64051;46.320;48.028;2023-05-07T05:29:31;19.94;66.36
75471;HTU21D;64051;46.320;48.028;2023-05-07T05:31:57;20.09;66.06
75471;HTU21D;64051;46.320;48.028;2023-05-07T05:34:24;20.22;65.58
75471;HTU21D;64051;46.320;48.028;2023-05-07T05:36:51;20.33;65.21
75471;HTU21D;64051;46.320;48.028;2023-05-07T05:39:17;20.40;64.72
75471;HTU21D;64051;46.320;48.028;2023-05-07T05:41:43;20.43;64.50
75471;HTU21D;64051;46.320;48.028;2023-05-07T05:44:12;20.48;64.17
75471;HTU21D;64051;46.320;48.028;2023-05-07T05:46:39;20.56;64.05
75471;HTU21D;64051;46.320;48.028;2023-05-07T05:49:08;20.69;63.65
75471;HTU21D;64051;46.320;48.028;2023-05-07T05:51:34;20.74;63.41
75471;HTU21D;64051;46.320;48.028;2023-05-07T05:54:00;20.84;63.21
75471;HTU21D;64051;46.320;48.028;2023-05-07T05:56:26;20.95;63.00
75471;HTU21D;64051;46.320;48.028;2023-05-07T05:58:55;21.05;62.71
75471;HTU21D;64051;46.320;48.028;2023-05-07T06:01:25;21.17;62.78
75471;HTU21D;64051;46.320;48.028;2023-05-07T06:04:09;21.31;62.54
75471;HTU21D;64051;46.320;48.028;2023-05-07T06:06:38;21.40;62.26
75471;HTU21D;64051;46.320;48.028;2023-05-07T06:09:04;21.50;62.15
75471;HTU21D;64051;46.320;48.028;2023-05-07T06:11:36;21.59;61.95
75471;HTU21D;64051;46.320;48.028;2023-05-07T06:16:48;21.79;61.65
75471;HTU21D;64051;46.320;48.028;2023-05-07T06:19:16;21.88;61.26
75471;HTU21D;64051;46.320;48.028;2023-05-07T06:21:46;21.91;60.99
75471;HTU21D;64051;46.320;48.028;2023-05-07T06:24:12;22.01;61.05
75471;HTU21D;64051;46.320;48.028;2023-05-07T06:26:42;22.12;60.96
75471;HTU21D;64051;46.320;48.028;2023-05-07T06:29:11;22.24;60.81
75471;HTU21D;64051;46.320;48.028;2023-05-07T06:31:41;22.32;60.57
75471;HTU21D;64051;46.320;48.028;2023-05-07T06:34:08;22.38;60.37
75471;HTU21D;64051;46.320;48.028;2023-05-07T06:36:37;22.50;60.06
75471;HTU21D;64051;46.320;48.028;2023-05-07T06:39:22;22.58;59.57
75471;HTU21D;64051;46.320;48.028;2023-05-07T06:41:48;22.63;59.49
75471;HTU21D;64051;46.320;48.028;2023-05-07T06:44:31;22.77;59.31
75471;HTU21D;64051;46.320;48.028;2023-05-07T06:47:04;22.88;59.11
75471;HTU21D;64051;46.320;48.028;2023-05-07T06:49:31;23.03;58.94
75471;HTU21D;64051;46.320;48.028;2023-05-07T06:52:00;23.18;58.83
75471;HTU21D;64051;46.320;48.028;2023-05-07T06:54:26;23.35;58.58
75471;HTU21D;64051;46.320;48.028;2023-05-07T06:56:52;23.41;58.07
75471;HTU21D;64051;46.320;48.028;2023-05-07T06:59:18;23.47;57.91
75471;HTU21D;64051;46.320;48.028;2023-05-07T07:01:48;23.51;57.67
75471;HTU21D;64051;46.320;48.028;2023-05-07T07:04:16;23.47;57.52
75471;HTU21D;64051;46.320;48.028;2023-05-07T07:06:46;23.49;57.39
75471;HTU21D;64051;46.320;48.028;2023-05-07T07:09:19;23.49;57.00
75471;HTU21D;64051;46.320;48.028;2023-05-07T07:11:48;23.51;57.10
75471;HTU21D;64051;46.320;48.028;2023-05-07T07:14:14;23.58;57.19
75471;HTU21D;64051;46.320;48.028;2023-05-07T07:16:45;23.68;56.96
75471;HTU21D;64051;46.320;48.028;2023-05-07T07:19:14;23.76;56.79
75471;HTU21D;64051;46.320;48.028;2023-05-07T07:21:42;23.86;56.58
75471;HTU21D;64051;46.320;48.028;2023-05-07T07:24:10;23.95;56.49
75471;HTU21D;64051;46.320;48.028;2023-05-07T07:26:36;24.00;56.40
75471;HTU21D;64051;46.320;48.028;2023-05-07T07:29:02;24.08;56.16
75471;HTU21D;64051;46.320;48.028;2023-05-07T07:31:29;24.09;55.93
75471;HTU21D;64051;46.320;48.028;2023-05-07T07:33:59;24.10;55.91
75471;HTU21D;64051;46.320;48.028;2023-05-07T07:37:01;24.10;56.08
75471;HTU21D;64051;46.320;48.028;2023-05-07T07:39:35;24.04;55.87
75471;HTU21D;64051;46.320;48.028;2023-05-07T07:42:04;23.94;56.03
75471;HTU21D;64051;46.320;48.028;2023-05-07T07:44:31;23.86;56.06
75471;HTU21D;64051;46.320;48.028;2023-05-07T07:47:05;23.81;56.09
75471;HTU21D;64051;46.320;48.028;2023-05-07T07:49:35;23.79;55.97
75471;HTU21D;64051;46.320;48.028;2023-05-07T07:52:05;23.81;56.12
75471;HTU21D;64051;46.320;48.028;2023-05-07T07:54:36;23.88;56.10
75471;HTU21D;64051;46.320;48.028;2023-05-07T07:57:03;24.04;56.07
75471;HTU21D;64051;46.320;48.028;2023-05-07T07:59:32;24.21;55.77
75471;HTU21D;64051;46.320;48.028;2023-05-07T08:02:15;24.35;55.28
75471;HTU21D;64051;46.320;48.028;2023-05-07T08:04:41;24.42;55.11
75471;HTU21D;64051;46.320;48.028;2023-05-07T08:07:10;24.51;54.91
75471;HTU21D;64051;46.320;48.028;2023-05-07T08:09:40;24.61;54.84
75471;HTU21D;64051;46.320;48.028;2023-05-07T08:12:10;24.71;54.65
75471;HTU21D;64051;46.320;48.028;2023-05-07T08:14:37;24.80;54.34
75471;HTU21D;64051;46.320;48.028;2023-05-07T08:17:05;24.90;53.98
75471;HTU21D;64051;46.320;48.028;2023-05-07T08:19:32;25.02;53.61
75471;HTU21D;64051;46.320;48.028;2023-05-07T08:21:59;25.09;53.46
75471;HTU21D;64051;46.320;48.028;2023-05-07T08:24:25;25.14;53.26
75471;HTU21D;64051;46.320;48.028;2023-05-07T08:26:52;25.20;53.14
75471;HTU21D;64051;46.320;48.028;2023-05-07T08:29:18;25.28;53.00
75471;HTU21D;64051;46.320;48.028;2023-05-07T08:31:46;25.37;52.82
75471;HTU21D;64051;46.320;48.028;2023-05-07T08:34:11;25.51;52.59
75471;HTU21D;64051;46.320;48.028;2023-05-07T08:36:41;25.61;52.49
75471;HTU21D;64051;46.320;48.028;2023-05-07T08:39:08;25.77;52.33
75471;HTU21D;64051;46.320;48.028;2023-05-07T08:41:35;25.94;52.13
75471;HTU21D;64051;46.320;48.028;2023-05-07T08:44:03;26.06;51.76
75471;HTU21D;64051;46.320;48.028;2023-05-07T08:46:39;26.11;51.34
75471;HTU21D;64051;46.320;48.028;2023-05-07T08:49:06;26.13;51.39
75471;HTU21D;64051;46.320;48.028;2023-05-07T08:51:32;26.20;51.27
75471;HTU21D;64051;46.320;48.028;2023-05-07T08:53:58;26.30;51.12
75471;HTU21D;64051;46.320;48.028;2023-05-07T08:56:29;26.36;50.86
75471;HTU21D;64051;46.320;48.028;2023-05-07T08:58:55;26.27;50.47
75471;HTU21D;64051;46.320;48.028;2023-05-07T09:01:37;26.18;50.40
75471;HTU21D;64051;46.320;48.028;2023-05-07T09:04:10;26.05;50.51
75471;HTU21D;64051;46.320;48.028;2023-05-07T09:06:37;25.94;50.47
75471;HTU21D;64051;46.320;48.028;2023-05-07T09:09:08;25.86;50.47
75471;HTU21D;64051;46.320;48.028;2023-05-07T09:11:37;25.81;50.41
75471;HTU21D;64051;46.320;48.028;2023-05-07T09:14:03;25.73;50.30
75471;HTU21D;64051;46.320;48.028;2023-05-07T09:16:35;25.69;50.34
75471;HTU21D;64051;46.320;48.028;2023-05-07T09:19:05;25.69;50.13
75471;HTU21D;64051;46.320;48.028;2023-05-07T09:21:31;25.65;49.86
75471;HTU21D;64051;46.320;48.028;2023-05-07T09:24:00;25.56;49.60
75471;HTU21D;64051;46.320;48.028;2023-05-07T09:26:36;25.49;49.59
75471;HTU21D;64051;46.320;48.028;2023-05-07T09:29:04;25.45;49.48
75471;HTU21D;64051;46.320;48.028;2023-05-07T09:31:30;25.44;49.48
75471;HTU21D;64051;46.320;48.028;2023-05-07T09:33:56;25.48;49.56
75471;HTU21D;64051;46.320;48.028;2023-05-07T09:36:24;25.61;49.59
75471;HTU21D;64051;46.320;48.028;2023-05-07T09:38:53;25.71;49.46
75471;HTU21D;64051;46.320;48.028;2023-05-07T09:41:30;25.79;49.19
75471;HTU21D;64051;46.320;48.028;2023-05-07T09:44:11;25.90;49.27
75471;HTU21D;64051;46.320;48.028;2023-05-07T09:46:47;25.93;48.73
75471;HTU21D;64051;46.320;48.028;2023-05-07T09:49:29;25.91;48.34
75471;HTU21D;64051;46.320;48.028;2023-05-07T09:52:01;25.81;48.44
75471;HTU21D;64051;46.320;48.028;2023-05-07T09:54:35;25.78;48.63
75471;HTU21D;64051;46.320;48.028;2023-05-07T09:57:05;25.84;48.54
75471;HTU21D;64051;46.320;48.028;2023-05-07T09:59:34;25.95;48.57
75471;HTU21D;64051;46.320;48.028;2023-05-07T10:02:09;26.08;48.72
75471;HTU21D;64051;46.320;48.028;2023-05-07T10:04:45;26.22;48.67
75471;HTU21D;64051;46.320;48.028;2023-05-07T10:07:18;26.41;48.29
75471;HTU21D;64051;46.320;48.028;2023-05-07T10:09:50;26.51;48.08
75471;HTU21D;64051;46.320;48.028;2023-05-07T10:12:32;26.50;47.70
75471;HTU21D;64051;46.320;48.028;2023-05-07T10:15:09;26.43;47.68
75471;HTU21D;64051;46.320;48.028;2023-05-07T10:17:43;26.38;47.57
75471;HTU21D;64051;46.320;48.028;2023-05-07T10:20:11;26.34;47.65
75471;HTU21D;64051;46.320;48.028;2023-05-07T10:22:43;26.35;47.47
75471;HTU21D;64051;46.320;48.028;2023-05-07T10:25:23;26.35;47.20
75471;HTU21D;64051;46.320;48.028;2023-05-07T10:27:52;26.34;47.24
75471;HTU21D;64051;46.320;48.028;2023-05-07T10:33:15;26.45;47.05
75471;HTU21D;64051;46.320;48.028;2023-05-07T10:35:45;26.48;46.84
75471;HTU21D;64051;46.320;48.028;2023-05-07T10:38:13;26.46;46.83
75471;HTU21D;64051;46.320;48.028;2023-05-07T10:40:42;26.42;46.85
75471;HTU21D;64051;46.320;48.028;2023-05-07T10:43:09;26.42;46.87
75471;HTU21D;64051;46.320;48.028;2023-05-07T10:45:41;26.41;46.76
75471;HTU21D;64051;46.320;48.028;2023-05-07T10:48:12;26.39;46.76
75471;HTU21D;64051;46.320;48.028;2023-05-07T10:50:41;26.37;46.74
75471;HTU21D;64051;46.320;48.028;2023-05-07T10:53:26;26.35;45.48
75471;HTU21D;64051;46.320;48.028;2023-05-07T10:58:53;26.17;45.87
75471;HTU21D;64051;46.320;48.028;2023-05-07T11:04:22;25.86;45.99
75471;HTU21D;64051;46.320;48.028;2023-05-07T11:07:29;25.72;46.13
75471;HTU21D;64051;46.320;48.028;2023-05-07T11:10:01;25.61;46.32
75471;HTU21D;64051;46.320;48.028;2023-05-07T11:12:51;25.58;46.51
75471;HTU21D;64051;46.320;48.028;2023-05-07T11:15:35;25.52;46.22
75471;HTU21D;64051;46.320;48.028;2023-05-07T11:18:03;25.44;46.62
75471;HTU21D;64051;46.320;48.028;2023-05-07T11:20:53;25.36;46.14
75471;HTU21D;64051;46.320;48.028;2023-05-07T11:26:25;25.22;46.80
75471;HTU21D;64051;46.320;48.028;2023-05-07T11:28:52;25.22;46.81
75471;HTU21D;64051;46.320;48.028;2023-05-07T11:31:27;25.22;46.44
75471;HTU21D;64051;46.320;48.028;2023-05-07T11:33:56;25.17;46.80
75471;HTU21D;64051;46.320;48.028;2023-05-07T11:36:23;25.10;46.70
75471;HTU21D;64051;46.320;48.028;2023-05-07T11:38:54;24.97;46.74
75471;HTU21D;64051;46.320;48.028;2023-05-07T11:41:36;24.87;46.73
75471;HTU21D;64051;46.320;48.028;2023-05-07T11:44:04;24.84;47.17
75471;HTU21D;64051;46.320;48.028;2023-05-07T11:46:30;24.86;47.25
75471;HTU21D;64051;46.320;48.028;2023-05-07T11:48:57;24.89;47.31
75471;HTU21D;64051;46.320;48.028;2023-05-07T11:51:24;24.92;47.29
75471;HTU21D;64051;46.320;48.028;2023-05-07T11:53:52;24.93;47.22
75471;HTU21D;64051;46.320;48.028;2023-05-07T11:56:24;24.90;47.25
75471;HTU21D;64051;46.320;48.028;2023-05-07T11:58:52;24.90;47.22
75471;HTU21D;64051;46.320;48.028;2023-05-07T12:01:18;24.88;47.25
75471;HTU21D;64051;46.320;48.028;2023-05-07T12:03:48;24.83;47.15
75471;HTU21D;64051;46.320;48.028;2023-05-07T12:06:16;24.84;47.11
75471;HTU21D;64051;46.320;48.028;2023-05-07T12:08:51;24.83;47.05
75471;HTU21D;64051;46.320;48.028;2023-05-07T12:11:23;24.82;46.57
75471;HTU21D;64051;46.320;48.028;2023-05-07T12:13:49;24.78;46.73
75471;HTU21D;64051;46.320;48.028;2023-05-07T12:16:19;24.73;46.67
75471;HTU21D;64051;46.320;48.028;2023-05-07T12:18:46;24.69;46.67
75471;HTU21D;64051;46.320;48.028;2023-05-07T12:21:21;24.63;46.60
75471;HTU21D;64051;46.320;48.028;2023-05-07T12:23:50;24.63;46.80
75471;HTU21D;64051;46.320;48.028;2023-05-07T12:26:23;24.60;46.76
75471;HTU21D;64051;46.320;48.028;2023-05-07T12:28:50;24.56;46.88
75471;HTU21D;64051;46.320;48.028;2023-05-07T12:31:16;24.50;47.37
75471;HTU21D;64051;46.320;48.028;2023-05-07T12:33:45;24.45;47.36
75471;HTU21D;64051;46.320;48.028;2023-05-07T12:36:15;24.43;47.47
75471;HTU21D;64051;46.320;48.028;2023-05-07T12:38:43;24.39;47.56
75471;HTU21D;64051;46.320;48.028;2023-05-07T12:41:10;24.33;47.56
75471;HTU21D;64051;46.320;48.028;2023-05-07T12:43:39;24.26;47.61
75471;HTU21D;64051;46.320;48.028;2023-05-07T12:46:06;24.19;47.72
75471;HTU21D;64051;46.320;48.028;2023-05-07T12:48:32;24.14;47.84
75471;HTU21D;64051;46.320;48.028;2023-05-07T12:51:05;24.09;47.90
75471;HTU21D;64051;46.320;48.028;2023-05-07T12:53:31;24.01;47.74
75471;HTU21D;64051;46.320;48.028;2023-05-07T12:55:58;23.90;48.39
75471;HTU21D;64051;46.320;48.028;2023-05-07T12:58:30;23.84;48.41
75471;HTU21D;64051;46.320;48.028;2023-05-07T13:01:05;23.75;48.46
75471;HTU21D;64051;46.320;48.028;2023-05-07T13:03:41;23.64;48.66
75471;HTU21D;64051;46.320;48.028;2023-05-07T13:06:10;23.55;48.60
75471;HTU21D;64051;46.320;48.028;2023-05-07T13:08:39;23.44;48.63
75471;HTU21D;64051;46.320;48.028;2023-05-07T13:11:09;23.35;48.72
75471;HTU21D;64051;46.320;48.028;2023-05-07T13:13:37;23.23;48.78
75471;HTU21D;64051;46.320;48.028;2023-05-07T13:16:05;23.10;48.83
75471;HTU21D;64051;46.320;48.028;2023-05-07T13:18:38;23.00;48.94
75471;HTU21D;64051;46.320;48.028;2023-05-07T13:21:14;22.90;49.03
75471;HTU21D;64051;46.320;48.028;2023-05-07T13:23:42;22.82;49.08
75471;HTU21D;64051;46.320;48.028;2023-05-07T13:26:09;22.75;49.15
75471;HTU21D;64051;46.320;48.028;2023-05-07T13:28:35;22.67;49.24
75471;HTU21D;64051;46.320;48.028;2023-05-07T13:31:01;22.60;49.29
75471;HTU21D;64051;46.320;48.028;2023-05-07T13:33:31;22.51;49.28
75471;HTU21D;64051;46.320;48.028;2023-05-07T13:36:03;22.42;49.46
75471;HTU21D;64051;46.320;48.028;2023-05-07T13:38:31;22.34;49.56
75471;HTU21D;64051;46.320;48.028;2023-05-07T13:40:57;22.26;49.66
75471;HTU21D;64051;46.320;48.028;2023-05-07T13:43:23;22.20;49.75
75471;HTU21D;64051;46.320;48.028;2023-05-07T13:45:49;22.13;49.85
75471;HTU21D;64051;46.320;48.028;2023-05-07T13:48:15;22.10;49.96
75471;HTU21D;64051;46.320;48.028;2023-05-07T13:50:48;22.04;50.02
75471;HTU21D;64051;46.320;48.028;2023-05-07T13:53:15;21.98;50.11
75471;HTU21D;64051;46.320;48.028;2023-05-07T13:55:44;21.93;50.18
75471;HTU21D;64051;46.320;48.028;2023-05-07T13:58:14;21.87;50.24
75471;HTU21D;64051;46.320;48.028;2023-05-07T14:00:50;21.84;50.21
75471;HTU21D;64051;46.320;48.028;2023-05-07T14:03:16;21.79;50.35
75471;HTU21D;64051;46.320;48.028;2023-05-07T14:05:47;21.76;50.35
75471;HTU21D;64051;46.320;48.028;2023-05-07T14:08:19;21.70;50.48
75471;HTU21D;64051;46.320;48.028;2023-05-07T14:10:46;21.65;50.55
75471;HTU21D;64051;46.320;48.028;2023-05-07T14:13:12;21.61;50.65
75471;HTU21D;64051;46.320;48.028;2023-05-07T14:15:38;21.58;50.75
75471;HTU21D;64051;46.320;48.028;2023-05-07T14:18:04;21.53;50.84
75471;HTU21D;64051;46.320;48.028;2023-05-07T14:20:34;21.48;50.92
75471;HTU21D;64051;46.320;48.028;2023-05-07T14:23:03;21.43;50.99
75471;HTU21D;64051;46.320;48.028;2023-05-07T14:25:48;21.36;51.06
75471;HTU21D;64051;46.320;48.028;2023-05-07T14:28:15;21.30;51.17
75471;HTU21D;64051;46.320;48.028;2023-05-07T14:30:45;21.22;51.27
75471;HTU21D;64051;46.320;48.028;2023-05-07T14:33:11;21.17;51.42
75471;HTU21D;64051;46.320;48.028;2023-05-07T14:35:44;21.10;51.53
75471;HTU21D;64051;46.320;48.028;2023-05-07T14:38:18;21.05;51.62
75471;HTU21D;64051;46.320;48.028;2023-05-07T14:40:50;20.99;51.72
75471;HTU21D;64051;46.320;48.028;2023-05-07T14:43:18;20.94;51.82
75471;HTU21D;64051;46.320;48.028;2023-05-07T14:45:48;20.90;51.88
75471;HTU21D;64051;46.320;48.028;2023-05-07T14:48:16;20.85;51.98
75471;HTU21D;64051;46.320;48.028;2023-05-07T14:50:42;20.79;52.04
75471;HTU21D;64051;46.320;48.028;2023-05-07T14:53:10;20.73;52.12
75471;HTU21D;64051;46.320;48.028;2023-05-07T14:55:42;20.68;52.20
75471;HTU21D;64051;46.320;48.028;2023-05-07T14:58:15;20.61;52.20
75471;HTU21D;64051;46.320;48.028;2023-05-07T15:00:41;20.55;52.27
75471;HTU21D;64051;46.320;48.028;2023-05-07T15:03:09;20.51;52.29
75471;HTU21D;64051;46.320;48.028;2023-05-07T15:05:36;20.47;52.34
75471;HTU21D;64051;46.320;48.028;2023-05-07T15:08:06;20.42;52.36
75471;HTU21D;64051;46.320;48.028;2023-05-07T15:10:35;20.40;52.34
75471;HTU21D;64051;46.320;48.028;2023-05-07T15:13:10;20.35;52.40
75471;HTU21D;64051;46.320;48.028;2023-05-07T15:15:38;20.31;52.46
75471;HTU21D;64051;46.320;48.028;2023-05-07T15:18:04;20.27;52.54
75471;HTU21D;64051;46.320;48.028;2023-05-07T15:20:30;20.24;52.65
75471;HTU21D;64051;46.320;48.028;2023-05-07T15:23:00;20.19;52.73
75471;HTU21D;64051;46.320;48.028;2023-05-07T15:25:26;20.16;52.85
75471;HTU21D;64051;46.320;48.028;2023-05-07T15:28:02;20.10;52.99
75471;HTU21D;64051;46.320;48.028;2023-05-07T15:30:29;20.04;53.10